Terminal Aerodrome Forecast
Issued by NWS Cleveland, OH

Home | Current Version | Previous Version | Graphics & Text | Print | Product List | Glossary On
Versions: 1 2 3 4 5 6 7 8 9 10 11 12 13 14 15 16 17 18 19 20 21 22
145
FTUS41 KCLE 150538
TAFCAK
TAF
KCAK 150538Z 1506/1606 30005KT 6SM BR SCT250
      TEMPO 1506/1510 4SM BR
     FM151000 VRB03KT P6SM BKN250=

USA.gov is the U.S. government's official web portal to all federal, state and local government web resources and services.